createdAt,value
2018-09-08T00:00:50.434Z,20.33
2018-09-08T00:03:19.352Z,20.32
2018-09-08T00:05:48.509Z,20.33
2018-09-08T00:08:17.450Z,20.33
2018-09-08T00:10:46.276Z,20.27
2018-09-08T00:13:15.127Z,20.22
2018-09-08T00:15:49.099Z,20.19
2018-09-08T00:18:23.192Z,20.22
2018-09-08T00:20:57.416Z,20.25
2018-09-08T00:23:31.421Z,20.18
2018-09-08T00:26:05.764Z,20.42
2018-09-08T00:28:45.636Z,20.29
2018-09-08T00:31:17.967Z,20.48
2018-09-08T00:33:47.811Z,20.09
2018-09-08T00:36:17.497Z,20.02
2018-09-08T00:38:46.764Z,19.96
2018-09-08T00:41:15.864Z,19.87
2018-09-08T00:43:44.840Z,19.80
2018-09-08T00:46:13.642Z,19.80
2018-09-08T00:48:42.564Z,19.82
2018-09-08T00:53:39.548Z,19.73
2018-09-08T00:56:08.659Z,19.63
2018-09-08T00:58:37.792Z,19.48
2018-09-08T01:01:06.876Z,19.57
2018-09-08T01:03:36.210Z,19.48
2018-09-08T01:06:05.062Z,19.44
2018-09-08T01:08:33.920Z,19.53
2018-09-08T01:11:03.277Z,19.56
2018-09-08T01:13:32.225Z,19.38
2018-09-08T01:16:01.499Z,19.37
2018-09-08T01:18:30.593Z,19.39
2018-09-08T01:20:59.830Z,19.40
2018-09-08T01:23:28.808Z,19.51
2018-09-08T01:25:58.164Z,19.42
2018-09-08T01:28:27.149Z,19.42
2018-09-08T01:30:56.035Z,19.56
2018-09-08T01:33:24.948Z,19.62
2018-09-08T01:35:53.888Z,19.62
2018-09-08T01:38:22.754Z,19.59
2018-09-08T01:40:51.603Z,19.65
2018-09-08T01:43:20.628Z,19.77
2018-09-08T01:45:49.485Z,19.79
2018-09-08T01:48:18.396Z,19.78
2018-09-08T01:50:47.602Z,19.84
2018-09-08T01:53:16.531Z,19.77
2018-09-08T01:55:45.712Z,19.70
2018-09-08T01:58:14.952Z,19.73
2018-09-08T02:00:44.912Z,19.70
2018-09-08T02:03:13.883Z,19.69
2018-09-08T02:05:42.731Z,19.75
2018-09-08T02:08:11.660Z,19.76
2018-09-08T02:10:40.548Z,19.73
2018-09-08T02:13:09.488Z,19.69
2018-09-08T02:15:38.312Z,19.70
2018-09-08T02:18:07.243Z,19.75
2018-09-08T02:20:36.167Z,19.60
2018-09-08T02:23:05.438Z,19.50
2018-09-08T02:25:34.352Z,19.37
2018-09-08T02:28:03.176Z,19.29
2018-09-08T02:30:32.320Z,19.18
2018-09-08T02:33:01.395Z,19.17
2018-09-08T02:35:30.322Z,19.09
2018-09-08T02:37:59.684Z,19.11
2018-09-08T02:40:28.643Z,19.12
2018-09-08T02:42:57.472Z,19.04
2018-09-08T02:45:26.403Z,18.97
2018-09-08T02:47:55.254Z,18.98
2018-09-08T02:50:43.743Z,18.92
2018-09-08T02:53:12.460Z,18.90
2018-09-08T02:55:40.397Z,18.85
2018-09-08T02:58:07.940Z,18.87
2018-09-08T03:00:35.446Z,18.85
2018-09-08T03:03:02.942Z,18.85
2018-09-08T03:05:30.384Z,18.78
2018-09-08T03:07:57.859Z,18.79
2018-09-08T03:10:25.471Z,18.85
2018-09-08T03:12:52.924Z,18.87
2018-09-08T03:15:20.484Z,18.98
2018-09-08T03:17:48.012Z,19.14
2018-09-08T03:20:15.576Z,19.05
2018-09-08T03:22:43.148Z,18.96
2018-09-08T03:25:10.669Z,19.04
2018-09-08T03:27:38.844Z,18.94
2018-09-08T03:30:06.753Z,18.93
2018-09-08T03:32:34.236Z,18.99
2018-09-08T03:35:01.888Z,19.02
2018-09-08T03:37:29.321Z,18.97
2018-09-08T03:39:56.883Z,18.99
2018-09-08T03:42:24.611Z,18.98
2018-09-08T03:44:52.221Z,19.01
2018-09-08T03:47:19.764Z,18.98
2018-09-08T03:49:47.296Z,18.98
2018-09-08T03:52:14.748Z,18.99
2018-09-08T03:54:42.389Z,19.05
2018-09-08T03:57:09.871Z,19.03
2018-09-08T03:59:37.444Z,18.98
2018-09-08T04:02:04.910Z,18.99
2018-09-08T04:04:33.815Z,19.05
2018-09-08T04:07:02.789Z,19.10
2018-09-08T04:09:31.644Z,19.08
2018-09-08T04:12:00.656Z,19.14
2018-09-08T04:14:29.498Z,19.07
2018-09-08T04:16:58.508Z,19.11
2018-09-08T04:19:27.344Z,19.09
2018-09-08T04:21:56.268Z,19.10
2018-09-08T04:24:25.261Z,19.07
2018-09-08T04:26:54.229Z,19.11
2018-09-08T04:29:23.669Z,19.16
2018-09-08T04:31:52.696Z,19.18
2018-09-08T04:34:21.616Z,19.23
2018-09-08T04:36:50.908Z,19.24
2018-09-08T04:39:19.765Z,19.35
2018-09-08T04:41:48.576Z,19.43
2018-09-08T04:44:17.476Z,19.49
2018-09-08T04:46:46.411Z,19.49
2018-09-08T04:49:15.484Z,19.56
2018-09-08T04:51:44.752Z,19.73
2018-09-08T04:54:13.987Z,19.66
2018-09-08T04:56:43.248Z,19.67
2018-09-08T04:59:12.100Z,19.71
2018-09-08T05:01:40.928Z,19.74
2018-09-08T05:04:09.861Z,19.69
2018-09-08T05:06:39.088Z,19.76
2018-09-08T05:09:10.458Z,19.84
2018-09-08T05:11:39.370Z,19.98
2018-09-08T05:14:08.336Z,19.99
2018-09-08T05:16:37.237Z,20.10
2018-09-08T05:19:06.160Z,20.12
2018-09-08T05:21:35.482Z,20.21
2018-09-08T05:24:04.500Z,20.28
2018-09-08T05:26:33.693Z,20.40
2018-09-08T05:29:02.859Z,20.22
2018-09-08T05:31:31.811Z,20.29
2018-09-08T05:34:00.982Z,20.24
2018-09-08T05:36:30.248Z,20.30
2018-09-08T05:38:59.400Z,20.46
2018-09-08T05:41:28.759Z,20.50
2018-09-08T05:43:57.716Z,20.57
2018-09-08T05:46:26.591Z,20.87
2018-09-08T05:48:55.557Z,20.76
2018-09-08T05:51:24.557Z,20.60
2018-09-08T05:53:53.480Z,20.90
2018-09-08T05:58:50.247Z,20.69
2018-09-08T06:01:19.145Z,20.71
2018-09-08T06:03:48.124Z,20.66
2018-09-08T06:06:16.985Z,20.78
2018-09-08T06:08:45.900Z,21.02
2018-09-08T06:11:14.905Z,21.17
2018-09-08T06:13:43.830Z,21.13
2018-09-08T06:16:12.766Z,21.00
2018-09-08T06:18:41.632Z,21.20
2018-09-08T06:21:10.485Z,21.31
2018-09-08T06:23:39.357Z,21.24
2018-09-08T06:26:08.320Z,21.30
2018-09-08T06:28:37.355Z,21.27
2018-09-08T06:31:06.506Z,21.41
2018-09-08T06:33:35.988Z,21.43
2018-09-08T06:36:05.432Z,21.61
2018-09-08T06:38:34.397Z,21.69
2018-09-08T06:41:03.322Z,21.76
2018-09-08T06:43:32.244Z,22.07
2018-09-08T06:46:01.152Z,22.08
2018-09-08T06:48:30.107Z,22.26
2018-09-08T06:50:59.027Z,22.28
2018-09-08T06:53:27.981Z,22.54
2018-09-08T06:55:56.915Z,22.34
2018-09-08T06:58:25.852Z,22.43
2018-09-08T07:00:54.868Z,22.51
2018-09-08T07:03:23.882Z,22.43
2018-09-08T07:05:52.823Z,22.50
2018-09-08T07:08:21.726Z,22.54
2018-09-08T07:10:50.806Z,22.83
2018-09-08T07:13:19.660Z,23.12
2018-09-08T07:15:48.687Z,23.25
2018-09-08T07:18:17.700Z,23.50
2018-09-08T07:20:46.575Z,23.43
2018-09-08T07:23:15.501Z,23.47
2018-09-08T07:25:44.416Z,23.84
2018-09-08T07:28:13.383Z,24.09
2018-09-08T07:30:42.198Z,24.14
2018-09-08T07:33:11.048Z,24.35
2018-09-08T07:35:40.308Z,24.45
2018-09-08T07:38:09.101Z,24.79
2018-09-08T07:40:38.029Z,24.68
2018-09-08T07:43:06.999Z,24.88
2018-09-08T07:45:36.024Z,25.08
2018-09-08T07:48:04.973Z,24.67
2018-09-08T07:50:33.893Z,25.09
2018-09-08T07:53:02.859Z,25.54
2018-09-08T07:55:31.820Z,26.06
2018-09-08T07:58:00.924Z,25.94
2018-09-08T08:00:29.989Z,26.71
2018-09-08T08:02:58.972Z,26.93
2018-09-08T08:05:27.889Z,27.14
2018-09-08T08:07:56.825Z,27.03
2018-09-08T08:10:25.832Z,26.84
2018-09-08T08:12:54.661Z,27.64
2018-09-08T08:15:23.594Z,27.36
2018-09-08T08:17:52.507Z,27.14
2018-09-08T08:20:21.401Z,27.37
2018-09-08T08:22:50.412Z,27.55
2018-09-08T08:25:19.368Z,27.31
2018-09-08T08:27:48.321Z,26.79
2018-09-08T08:30:17.576Z,27.27
2018-09-08T08:32:46.524Z,27.14
2018-09-08T08:35:15.686Z,27.14
2018-09-08T08:37:44.884Z,27.80
2018-09-08T08:40:14.112Z,26.76
2018-09-08T08:42:43.356Z,26.96
2018-09-08T08:45:12.200Z,27.34
2018-09-08T08:47:41.116Z,27.21
2018-09-08T08:50:20.820Z,27.73
2018-09-08T08:53:00.774Z,27.83
2018-09-08T08:55:30.075Z,27.57
2018-09-08T08:57:58.899Z,27.34
2018-09-08T09:00:27.980Z,26.94
2018-09-08T09:02:57.315Z,27.60
2018-09-08T09:05:26.578Z,26.29
2018-09-08T09:07:55.872Z,26.51
2018-09-08T09:10:24.968Z,27.31
2018-09-08T09:12:53.955Z,27.01
2018-09-08T09:15:23.536Z,27.10
2018-09-08T09:17:52.240Z,26.85
2018-09-08T09:20:32.039Z,26.93
2018-09-08T09:23:11.919Z,26.73
2018-09-08T09:25:40.944Z,26.85
2018-09-08T09:28:10.036Z,27.15
2018-09-08T09:30:39.199Z,26.89
2018-09-08T09:33:08.116Z,26.22
2018-09-08T09:35:37.052Z,26.38
2018-09-08T09:38:06.258Z,26.63
2018-09-08T09:40:35.570Z,26.81
2018-09-08T09:43:04.596Z,27.19
2018-09-08T09:45:33.467Z,27.67
2018-09-08T09:48:02.604Z,27.73
2018-09-08T09:50:31.916Z,28.07
2018-09-08T09:53:00.815Z,27.82
2018-09-08T09:55:29.852Z,27.66
2018-09-08T09:57:59.343Z,27.22
2018-09-08T10:00:33.532Z,27.49
2018-09-08T10:03:08.336Z,27.50
2018-09-08T10:05:37.851Z,27.26
2018-09-08T10:08:08.046Z,27.48
2018-09-08T10:10:37.228Z,27.14
2018-09-08T10:13:06.481Z,27.94
2018-09-08T10:15:35.372Z,28.05
2018-09-08T10:18:04.538Z,27.65
2018-09-08T10:20:33.468Z,27.68
2018-09-08T10:23:02.838Z,27.40
2018-09-08T10:25:31.836Z,27.79
2018-09-08T10:28:01.161Z,28.02
2018-09-08T10:30:30.344Z,28.10
2018-09-08T10:32:59.685Z,28.21
2018-09-08T10:35:28.929Z,27.86
2018-09-08T10:37:58.151Z,27.79
2018-09-08T10:40:27.087Z,28.56
2018-09-08T10:42:55.933Z,28.37
2018-09-08T10:45:24.883Z,28.63
2018-09-08T10:47:54.261Z,29.02
2018-09-08T10:50:23.234Z,28.84
2018-09-08T10:52:52.218Z,28.53
2018-09-08T10:55:21.181Z,28.14
2018-09-08T10:57:50.109Z,27.85
2018-09-08T11:00:19.138Z,27.93
2018-09-08T11:02:48.731Z,27.86
2018-09-08T11:05:17.588Z,27.95
2018-09-08T11:07:46.891Z,28.02
2018-09-08T11:10:15.769Z,27.83
2018-09-08T11:12:45.033Z,28.13
2018-09-08T11:15:14.000Z,27.64
2018-09-08T11:17:43.216Z,27.61
2018-09-08T11:20:12.088Z,27.03
2018-09-08T11:22:41.413Z,27.36
2018-09-08T11:25:10.288Z,27.49
2018-09-08T11:27:39.479Z,26.87
2018-09-08T11:30:08.593Z,27.02
2018-09-08T11:32:37.632Z,26.76
2018-09-08T11:35:06.530Z,27.11
2018-09-08T11:37:35.510Z,26.79
2018-09-08T11:40:04.347Z,27.08
2018-09-08T11:42:33.285Z,26.50
2018-09-08T11:45:02.245Z,26.35
2018-09-08T11:47:31.169Z,26.17
2018-09-08T11:50:00.349Z,25.93
2018-09-08T11:52:29.191Z,25.72
2018-09-08T11:54:59.105Z,25.98
2018-09-08T11:57:28.068Z,26.49
2018-09-08T11:59:57.028Z,26.09
2018-09-08T12:02:25.956Z,26.57
2018-09-08T12:04:54.896Z,25.85
2018-09-08T12:07:24.057Z,25.73
2018-09-08T12:09:52.980Z,26.36
2018-09-08T12:12:22.388Z,26.69
2018-09-08T12:14:51.532Z,26.20
2018-09-08T12:17:20.450Z,26.78
2018-09-08T12:19:49.693Z,26.83
2018-09-08T12:22:18.765Z,26.70
2018-09-08T12:24:48.316Z,26.47
2018-09-08T12:27:17.252Z,26.92
2018-09-08T12:29:46.156Z,26.86
2018-09-08T12:32:15.193Z,26.76
2018-09-08T12:34:44.048Z,27.41
2018-09-08T12:37:13.055Z,27.09
2018-09-08T12:39:41.952Z,27.32
2018-09-08T12:42:10.820Z,27.60
2018-09-08T12:44:40.165Z,27.39
2018-09-08T12:47:09.299Z,27.54
2018-09-08T12:49:38.544Z,27.47
2018-09-08T12:52:07.877Z,27.13
2018-09-08T12:54:36.952Z,27.64
2018-09-08T12:57:05.881Z,27.10
2018-09-08T12:59:34.860Z,27.47
2018-09-08T13:02:03.857Z,26.91
2018-09-08T13:04:32.772Z,27.38
2018-09-08T13:07:01.713Z,27.47
2018-09-08T13:09:30.659Z,27.48
2018-09-08T13:11:59.752Z,27.31
2018-09-08T13:14:28.792Z,26.34
2018-09-08T13:16:57.726Z,26.55
2018-09-08T13:19:27.041Z,26.71
2018-09-08T13:21:55.915Z,26.69
2018-09-08T13:24:24.832Z,26.99
2018-09-08T13:26:53.860Z,26.58
2018-09-08T13:29:22.936Z,26.83
2018-09-08T13:31:51.997Z,27.10
2018-09-08T13:34:20.843Z,26.95
2018-09-08T13:36:49.809Z,27.03
2018-09-08T13:39:18.755Z,26.82
2018-09-08T13:41:48.134Z,26.56
2018-09-08T13:44:17.099Z,26.78
2018-09-08T13:46:46.048Z,27.25
2018-09-08T13:49:15.107Z,27.04
2018-09-08T13:51:44.355Z,27.15
2018-09-08T13:54:13.568Z,27.60
2018-09-08T13:56:42.400Z,28.45
2018-09-08T13:59:11.321Z,28.81
2018-09-08T14:01:40.305Z,29.22
2018-09-08T14:04:09.313Z,28.89
2018-09-08T14:06:38.206Z,28.64
2018-09-08T14:09:07.701Z,28.68
2018-09-08T14:11:36.636Z,27.96
2018-09-08T14:14:05.708Z,27.15
2018-09-08T14:16:34.628Z,27.79
2018-09-08T14:19:03.700Z,27.98
2018-09-08T14:21:32.901Z,28.24
2018-09-08T14:24:02.304Z,28.58
2018-09-08T14:26:31.132Z,29.17
2018-09-08T14:28:59.976Z,28.02
2018-09-08T14:31:29.552Z,27.88
2018-09-08T14:33:58.503Z,28.51
2018-09-08T14:36:27.352Z,29.10
2018-09-08T14:38:56.476Z,28.61
2018-09-08T14:41:25.393Z,28.16
2018-09-08T14:43:54.292Z,27.86
2018-09-08T14:46:23.428Z,27.66
2018-09-08T14:48:52.420Z,28.11
2018-09-08T14:51:21.488Z,27.54
2018-09-08T14:53:50.325Z,27.09
2018-09-08T14:56:19.292Z,27.38
2018-09-08T14:58:48.168Z,27.68
2018-09-08T15:01:17.108Z,27.14
2018-09-08T15:03:46.397Z,27.11
2018-09-08T15:06:16.908Z,26.38
2018-09-08T15:08:46.075Z,26.31
2018-09-08T15:11:14.980Z,26.08
2018-09-08T15:13:43.952Z,26.00
2018-09-08T15:16:12.763Z,25.87
2018-09-08T15:18:41.746Z,26.00
2018-09-08T15:21:10.764Z,26.13
2018-09-08T15:23:39.595Z,26.01
2018-09-08T15:26:08.593Z,25.98
2018-09-08T15:28:37.416Z,25.70
2018-09-08T15:31:06.228Z,25.91
2018-09-08T15:33:35.120Z,25.50
2018-09-08T15:36:04.328Z,25.38
2018-09-08T15:38:33.250Z,25.42
2018-09-08T15:41:02.229Z,25.62
2018-09-08T15:43:31.200Z,25.62
2018-09-08T15:46:00.288Z,26.07
2018-09-08T15:48:29.157Z,26.23
2018-09-08T15:50:58.002Z,26.02
2018-09-08T15:53:27.265Z,26.11
2018-09-08T15:55:56.446Z,26.33
2018-09-08T15:58:25.646Z,27.03
2018-09-08T16:00:54.928Z,26.90
2018-09-08T16:03:24.179Z,26.82
2018-09-08T16:05:53.499Z,26.54
2018-09-08T16:08:22.720Z,26.05
2018-09-08T16:10:51.842Z,25.93
2018-09-08T16:13:21.227Z,25.95
2018-09-08T16:15:50.755Z,26.09
2018-09-08T16:18:20.112Z,25.73
2018-09-08T16:20:49.438Z,25.85
2018-09-08T16:23:18.960Z,25.70
2018-09-08T16:25:48.409Z,25.42
2018-09-08T16:28:18.221Z,25.15
2018-09-08T16:30:47.625Z,24.95
2018-09-08T16:33:16.683Z,24.62
2018-09-08T16:35:45.748Z,24.46
2018-09-08T16:38:14.729Z,24.32
2018-09-08T16:40:43.955Z,24.18
2018-09-08T16:43:13.516Z,24.12
2018-09-08T16:45:42.867Z,24.10
2018-09-08T16:48:12.082Z,24.06
2018-09-08T16:50:41.277Z,23.99
2018-09-08T16:53:10.307Z,23.85
2018-09-08T16:55:39.288Z,23.89
2018-09-08T16:58:08.308Z,23.87
2018-09-08T17:00:37.551Z,23.79
2018-09-08T17:03:06.897Z,23.84
2018-09-08T17:05:36.025Z,23.86
2018-09-08T17:08:05.220Z,23.80
2018-09-08T17:10:34.130Z,23.78
2018-09-08T17:13:03.097Z,23.77
2018-09-08T17:15:32.057Z,23.77
2018-09-08T17:18:01.335Z,23.97
2018-09-08T17:20:30.645Z,23.79
2018-09-08T17:23:00.084Z,23.70
2018-09-08T17:25:29.235Z,23.64
2018-09-08T17:27:58.060Z,23.56
2018-09-08T17:30:27.344Z,23.49
2018-09-08T17:32:56.553Z,23.51
2018-09-08T17:35:25.760Z,23.42
2018-09-08T17:37:54.904Z,23.34
2018-09-08T17:40:24.193Z,23.26
2018-09-08T17:42:53.495Z,23.41
2018-09-08T17:45:22.496Z,23.34
2018-09-08T17:47:51.432Z,23.23
2018-09-08T17:50:20.365Z,23.29
2018-09-08T17:52:49.238Z,23.21
2018-09-08T17:55:18.308Z,23.15
2018-09-08T17:57:47.206Z,23.49
2018-09-08T18:00:16.399Z,23.44
2018-09-08T18:02:45.409Z,23.22
2018-09-08T18:05:14.296Z,23.09
2018-09-08T18:07:44.180Z,23.30
2018-09-08T18:10:13.016Z,23.13
2018-09-08T18:12:41.860Z,23.09
2018-09-08T18:15:11.142Z,23.16
2018-09-08T18:17:40.072Z,23.12
2018-09-08T18:20:09.032Z,23.12
2018-09-08T18:22:38.117Z,23.23
2018-09-08T18:25:07.129Z,23.41
2018-09-08T18:27:36.032Z,23.49
2018-09-08T18:30:04.885Z,23.46
2018-09-08T18:32:33.792Z,23.69
2018-09-08T18:35:02.692Z,23.87
2018-09-08T18:37:31.665Z,23.91
2018-09-08T18:40:00.551Z,23.58
2018-09-08T18:42:29.454Z,23.33
2018-09-08T18:44:58.361Z,23.39
2018-09-08T18:47:27.320Z,23.21
2018-09-08T18:49:56.384Z,23.20
2018-09-08T18:52:25.364Z,23.35
2018-09-08T18:54:54.309Z,23.15
2018-09-08T18:57:23.256Z,23.05
2018-09-08T18:59:52.240Z,22.92
2018-09-08T19:02:21.145Z,22.88
2018-09-08T19:04:50.529Z,23.00
2018-09-08T19:07:19.728Z,22.91
2018-09-08T19:10:06.469Z,22.87
2018-09-08T19:12:36.275Z,23.18
2018-09-08T19:15:10.296Z,23.07
2018-09-08T19:17:39.208Z,23.32
2018-09-08T19:20:13.145Z,23.16
2018-09-08T19:22:42.280Z,23.08
2018-09-08T19:25:11.193Z,22.98
2018-09-08T19:27:40.120Z,23.02
2018-09-08T19:30:09.152Z,22.89
2018-09-08T19:32:38.010Z,22.60
2018-09-08T19:35:12.052Z,22.50
2018-09-08T19:37:40.950Z,22.70
2018-09-08T19:40:14.836Z,22.42
2018-09-08T19:42:43.798Z,22.54
2018-09-08T19:45:12.920Z,22.77
2018-09-08T19:47:46.782Z,23.19
2018-09-08T19:50:15.779Z,23.28
2018-09-08T19:52:49.921Z,23.19
2018-09-08T19:55:18.790Z,23.10
2018-09-08T19:57:52.670Z,22.89
2018-09-08T20:00:21.651Z,23.04
2018-09-08T20:02:50.708Z,22.63
2018-09-08T20:05:19.556Z,22.51
2018-09-08T20:07:48.533Z,22.28
2018-09-08T20:10:17.394Z,22.23
2018-09-08T20:12:46.259Z,22.08
2018-09-08T20:15:15.268Z,21.95
2018-09-08T20:17:44.301Z,21.86
2018-09-08T20:20:13.273Z,21.82
2018-09-08T20:22:42.568Z,22.12
2018-09-08T20:25:11.499Z,22.19
2018-09-08T20:27:40.305Z,21.93
2018-09-08T20:30:09.848Z,21.87
2018-09-08T20:32:38.824Z,21.97
2018-09-08T20:35:07.859Z,21.86
2018-09-08T20:37:36.797Z,21.73
2018-09-08T20:40:05.976Z,21.66
2018-09-08T20:42:34.938Z,21.60
2018-09-08T20:45:03.733Z,21.60
2018-09-08T20:47:32.792Z,21.72
2018-09-08T20:50:01.733Z,21.67
2018-09-08T20:52:30.658Z,21.86
2018-09-08T20:54:59.623Z,21.93
2018-09-08T20:57:28.444Z,22.02
2018-09-08T20:59:57.369Z,21.62
2018-09-08T21:02:26.641Z,21.64
2018-09-08T21:04:55.544Z,21.54
2018-09-08T21:07:24.507Z,21.53
2018-09-08T21:09:53.486Z,21.48
2018-09-08T21:12:22.348Z,21.35
2018-09-08T21:14:51.260Z,21.25
2018-09-08T21:17:20.133Z,21.38
2018-09-08T21:19:49.016Z,21.25
2018-09-08T21:22:17.927Z,21.65
2018-09-08T21:24:46.836Z,21.36
2018-09-08T21:27:15.683Z,21.26
2018-09-08T21:29:44.574Z,21.15
2018-09-08T21:32:13.817Z,21.15
2018-09-08T21:34:42.667Z,21.00
2018-09-08T21:37:11.555Z,20.87
2018-09-08T21:39:40.520Z,20.68
2018-09-08T21:42:09.469Z,20.54
2018-09-08T21:44:38.316Z,20.58
2018-09-08T21:47:07.326Z,20.45
2018-09-08T21:49:36.284Z,20.37
2018-09-08T21:52:05.130Z,20.36
2018-09-08T21:54:34.059Z,20.28
2018-09-08T21:57:02.934Z,20.26
2018-09-08T21:59:32.141Z,20.27
2018-09-08T22:02:01.172Z,20.32
2018-09-08T22:04:30.138Z,20.34
2018-09-08T22:06:59.080Z,20.47
2018-09-08T22:09:28.002Z,20.78
2018-09-08T22:11:56.932Z,20.75
2018-09-08T22:14:25.869Z,20.49
2018-09-08T22:16:55.055Z,20.35
2018-09-08T22:19:24.651Z,20.36
2018-09-08T22:21:53.612Z,20.40
2018-09-08T22:24:22.454Z,20.40
2018-09-08T22:26:51.380Z,20.40
2018-09-08T22:29:20.339Z,20.40
2018-09-08T22:31:49.180Z,20.34
2018-09-08T22:34:18.432Z,20.32
2018-09-08T22:36:47.387Z,20.30
2018-09-08T22:39:16.275Z,20.34
2018-09-08T22:41:46.017Z,20.27
2018-09-08T22:44:14.851Z,20.18
2018-09-08T22:46:43.979Z,20.17
2018-09-08T22:49:12.910Z,20.14
2018-09-08T22:51:41.958Z,20.08
2018-09-08T22:54:11.310Z,20.03
2018-09-08T22:56:40.314Z,20.06
2018-09-08T22:59:09.205Z,19.97
2018-09-08T23:01:38.521Z,19.93
2018-09-08T23:04:07.547Z,19.95
2018-09-08T23:06:36.417Z,19.97
2018-09-08T23:09:06.438Z,20.00
2018-09-08T23:11:35.272Z,19.91
2018-09-08T23:14:04.183Z,19.87
2018-09-08T23:16:33.328Z,19.92
2018-09-08T23:19:02.641Z,19.83
2018-09-08T23:21:31.699Z,19.88
2018-09-08T23:24:00.749Z,19.84
2018-09-08T23:26:29.898Z,19.82
2018-09-08T23:28:58.861Z,19.79
2018-09-08T23:31:28.233Z,19.78
2018-09-08T23:33:57.093Z,19.76
2018-09-08T23:36:26.191Z,19.74
2018-09-08T23:38:55.099Z,19.76
2018-09-08T23:41:23.927Z,19.80
2018-09-08T23:43:52.800Z,19.72
2018-09-08T23:46:21.827Z,19.71
2018-09-08T23:48:50.732Z,19.76
2018-09-08T23:51:19.679Z,19.66
2018-09-08T23:53:48.608Z,19.58
2018-09-08T23:56:17.572Z,19.62
2018-09-08T23:58:46.592Z,19.63
